Aktualizace27-Dec-2013 12:01pm 
 
:.
METEOSTANICE CHUDCICE (CZ), Milan Kolar

Vývoj počasí za 24 hodin



Temp/Humidity last 24 hours


Čas Teplota Rychlost větru Směr větru Vlhkost Tlak D隝
21:11 20.8°C (69.4°F) 0.0km/h (0.0 mph) N 71% 1012.5hPa (29.90 inHg) 0.0mm (0.00 in.)
20:11 20.8°C (69.4 °F) 1.9km/h (1.2 mph) NNW 74% 1012.5hPa (29.90 inHg) 0.0mm (0.00 in.)
19:11 23.5°C (74.3 °F) 0.0km/h (0.0 mph) ENE 60% 1012.5hPa (29.90 inHg) 0.0mm (0.00 in.)
18:11 25.3°C (77.5 °F) 3.7km/h (2.3 mph) NW 54% 1012.5hPa (29.90 inHg) 0.0mm (0.00 in.)
17:11 25.9°C (78.6 °F) 0.0km/h (0.0 mph) SE 52% 1012.5hPa (29.90 inHg) 0.0mm (0.00 in.)
16:11 23.9°C (75.0 °F) 5.6km/h (3.5 mph) NNW 55% 1012.5hPa (29.90 inHg) 0.0mm (0.00 in.)
15:11 23.4°C (74.1 °F) 3.7km/h (2.3 mph) SE 58% 1012.5hPa (29.90 inHg) 0.0mm (0.00 in.)
14:11 24.1°C (75.4 °F) 3.7km/h (2.3 mph) N 57% 1012.5hPa (29.90 inHg) 0.0mm (0.00 in.)
13:11 23.9°C (75.0 °F) 3.7km/h (2.3 mph) S 57% 1012.5hPa (29.90 inHg) 0.0mm (0.00 in.)
12:11 23.8°C (74.8 °F) 3.7km/h (2.3 mph) NE 60% 1012.5hPa (29.90 inHg) 0.0mm (0.00 in.)
11:11 26.0°C (78.8 °F) 1.9km/h (1.2 mph) E 52% 1012.5hPa (29.90 inHg) 0.0mm (0.00 in.)
10:11 24.8°C (76.6 °F) 1.9km/h (1.2 mph) NE 57% 1012.5hPa (29.90 inHg) 0.0mm (0.00 in.)
09:11 25.0°C (77.0 °F) 0.0km/h (0.0 mph) ESE 61% 1012.5hPa (29.90 inHg) 0.0mm (0.00 in.)
08:11 23.2°C (73.8 °F) 1.9km/h (1.2 mph) NNE 65% 1012.5hPa (29.90 inHg) 0.0mm (0.00 in.)
07:11 19.2°C (66.6 °F) 1.9km/h (1.2 mph) ESE 78% 1012.5hPa (29.90 inHg) 0.0mm (0.00 in.)
06:11 14.4°C (57.9 °F) 0.0km/h (0.0 mph) ENE 81% 1012.5hPa (29.90 inHg) 0.0mm (0.00 in.)
05:11 13.5°C (56.3 °F) 0.0km/h (0.0 mph) ENE 82% 1012.5hPa (29.90 inHg) 0.0mm (0.00 in.)
04:11 13.8°C (56.8 °F) 0.0km/h (0.0 mph) ENE 82% 1012.5hPa (29.90 inHg) 0.0mm (0.00 in.)
03:11 14.4°C (57.9 °F) 0.0km/h (0.0 mph) ENE 81% 1012.5hPa (29.90 inHg) 0.0mm (0.00 in.)
02:11 15.1°C (59.2 °F) 0.0km/h (0.0 mph) ENE 81% 1012.5hPa (29.90 inHg) 0.0mm (0.00 in.)
01:11 16.2°C (61.2 °F) 0.0km/h (0.0 mph) ENE 80% 1012.5hPa (29.90 inHg) 0.0mm (0.00 in.)
00:11 16.9°C (62.4 °F) 0.0km/h (0.0 mph) NE 79% 1012.5hPa (29.90 inHg) 0.0mm (0.00 in.)
23:11 18.2°C (64.8 °F) 0.0km/h (0.0 mph) SW 75% 1012.5hPa (29.90 inHg) 0.0mm (0.00 in.)
22:11 19.0°C (66.2 °F) 0.0km/h (0.0 mph) ENE 71% 1012.5hPa (29.90 inHg) 0.0mm (0.00 in.)

Barometer last 24 hours

Rain last 24 hours

Avg Windspeed last 24 hours

Š 2008-2017, Ing.Milan Kolář, Meteostanice WS 2350, La Crosse Technology